気象予報士の航空気象 北東風

*All archives   *Admin

2009.09.02 (Wed)

北東風

 北海道の東に高気圧が存在すると、関東は北東風が吹き、低い雲に覆われて曇り、気温が上がりません。


農作物に影響する北東風です。


午後3時の天気図 ASAS

ASAS02SEP09.jpg


ばっちり北東風の気圧配置です。


羽田空港の14時のMetar

RJTT 020500Z 03015KT 9999 FEW020 BKN025 23/18 Q1018 RMK 1CU020 7SC025 A3008


なんと気温23度、朝から夕方まで22~23度でした。


半袖で過ごしたので肌寒かったですね、今日は。


電車のクーラーが体にしみました。


反面、大阪は南風の場


大阪、伊丹  午後1時のMetar

RJOO 020400Z 09007KT 030V130 9999 FEW035 SCT045 BKN/// 32/20 Q1014 RMK 1CU035 4CU045 A2994


気温が32度まで上昇しています。


まだまだ残暑。


明日は、どうなんでしょう。


2日09時を基準にしたFXJP854 3日午前9時の予想図です。

FXJP02SEP09.jpg


明日も北東風、気温は上がらないでしょう。


また、関西は南風の場、関東と関西の間には風の境があり、また日本の上空には寒気が入ってきています。


各地で、大気不安定。




ブログランキングに参加しています。
にほんブログ村 環境ブログ 天気・気象学へ
にほんブログ村
応援クリックをおねがします。
 

以下、アフィリエイトサイトです。






スポンサーサイト
19:08  |  気象・天気  |  TB(0)  |  CM(0)  |  EDIT  |  Top↑

コメントを投稿する


 管理者だけに表示  (非公開コメント投稿可能)

▲PageTop

この記事のトラックバックURL

→http://weathereucalyptus.blog115.fc2.com/tb.php/226-202e5767
この記事にトラックバックする(FC2ブログユーザー)

この記事へのトラックバック

▲PageTop

 | BLOGTOP |